sensor_id;sensor_type;location;lat;lon;timestamp;P1;durP1;ratioP1;P2;durP2;ratioP2
18296;SDS011;18066;52.106;5.534;2022-08-30T00:02:18;8.63;;;3.10;;
18296;SDS011;18066;52.106;5.534;2022-08-30T00:04:45;5.13;;;2.80;;
18296;SDS011;18066;52.106;5.534;2022-08-30T00:07:12;5.10;;;2.72;;
18296;SDS011;18066;52.106;5.534;2022-08-30T00:09:39;4.47;;;2.60;;
18296;SDS011;18066;52.106;5.534;2022-08-30T00:12:06;3.38;;;2.88;;
18296;SDS011;18066;52.106;5.534;2022-08-30T00:14:33;3.75;;;2.95;;
18296;SDS011;18066;52.106;5.534;2022-08-30T00:16:59;7.20;;;3.13;;
18296;SDS011;18066;52.106;5.534;2022-08-30T00:19:27;5.55;;;2.60;;
18296;SDS011;18066;52.106;5.534;2022-08-30T00:21:54;6.93;;;2.85;;
18296;SDS011;18066;52.106;5.534;2022-08-30T00:24:21;4.40;;;3.15;;
18296;SDS011;18066;52.106;5.534;2022-08-30T00:26:48;7.10;;;3.25;;
18296;SDS011;18066;52.106;5.534;2022-08-30T00:29:15;4.63;;;2.92;;
18296;SDS011;18066;52.106;5.534;2022-08-30T00:31:41;3.95;;;3.00;;
18296;SDS011;18066;52.106;5.534;2022-08-30T00:34:08;5.47;;;3.00;;
18296;SDS011;18066;52.106;5.534;2022-08-30T00:36:36;5.85;;;3.55;;
18296;SDS011;18066;52.106;5.534;2022-08-30T00:39:03;4.93;;;3.30;;
18296;SDS011;18066;52.106;5.534;2022-08-30T00:41:30;4.32;;;3.20;;
18296;SDS011;18066;52.106;5.534;2022-08-30T00:43:56;7.63;;;3.22;;
18296;SDS011;18066;52.106;5.534;2022-08-30T00:46:23;4.15;;;3.13;;
18296;SDS011;18066;52.106;5.534;2022-08-30T00:48:50;4.90;;;3.25;;
18296;SDS011;18066;52.106;5.534;2022-08-30T00:51:17;3.75;;;2.60;;
18296;SDS011;18066;52.106;5.534;2022-08-30T00:53:48;8.38;;;3.40;;
18296;SDS011;18066;52.106;5.534;2022-08-30T00:56:19;5.72;;;3.35;;
18296;SDS011;18066;52.106;5.534;2022-08-30T00:58:50;3.33;;;3.00;;
18296;SDS011;18066;52.106;5.534;2022-08-30T01:01:20;5.78;;;3.78;;
18296;SDS011;18066;52.106;5.534;2022-08-30T01:03:47;5.32;;;3.28;;
18296;SDS011;18066;52.106;5.534;2022-08-30T01:06:14;7.18;;;3.70;;
18296;SDS011;18066;52.106;5.534;2022-08-30T01:08:42;5.32;;;3.78;;
18296;SDS011;18066;52.106;5.534;2022-08-30T01:11:11;4.80;;;3.47;;
18296;SDS011;18066;52.106;5.534;2022-08-30T01:13:39;6.70;;;3.90;;
18296;SDS011;18066;52.106;5.534;2022-08-30T01:16:06;5.93;;;3.70;;
18296;SDS011;18066;52.106;5.534;2022-08-30T01:18:34;5.25;;;4.03;;
18296;SDS011;18066;52.106;5.534;2022-08-30T01:21:03;4.35;;;3.95;;
18296;SDS011;18066;52.106;5.534;2022-08-30T01:23:38;4.78;;;3.58;;
18296;SDS011;18066;52.106;5.534;2022-08-30T01:26:08;7.35;;;3.80;;
18296;SDS011;18066;52.106;5.534;2022-08-30T01:28:37;4.65;;;3.65;;
18296;SDS011;18066;52.106;5.534;2022-08-30T01:31:05;7.53;;;4.15;;
18296;SDS011;18066;52.106;5.534;2022-08-30T01:33:32;7.72;;;4.07;;
18296;SDS011;18066;52.106;5.534;2022-08-30T01:36:02;7.22;;;4.22;;
18296;SDS011;18066;52.106;5.534;2022-08-30T01:38:32;5.43;;;4.00;;
18296;SDS011;18066;52.106;5.534;2022-08-30T01:41:08;7.05;;;4.45;;
18296;SDS011;18066;52.106;5.534;2022-08-30T01:43:36;6.57;;;4.00;;
18296;SDS011;18066;52.106;5.534;2022-08-30T01:46:03;4.38;;;3.95;;
18296;SDS011;18066;52.106;5.534;2022-08-30T01:48:30;5.45;;;4.00;;
18296;SDS011;18066;52.106;5.534;2022-08-30T01:50:58;5.63;;;4.32;;
18296;SDS011;18066;52.106;5.534;2022-08-30T01:53:25;5.45;;;4.28;;
18296;SDS011;18066;52.106;5.534;2022-08-30T01:55:51;6.38;;;4.63;;
18296;SDS011;18066;52.106;5.534;2022-08-30T01:58:19;4.07;;;3.67;;
18296;SDS011;18066;52.106;5.534;2022-08-30T02:00:48;5.38;;;3.60;;
18296;SDS011;18066;52.106;5.534;2022-08-30T02:03:15;4.40;;;3.55;;
18296;SDS011;18066;52.106;5.534;2022-08-30T02:05:41;5.93;;;3.65;;
18296;SDS011;18066;52.106;5.534;2022-08-30T02:08:08;4.72;;;3.72;;
18296;SDS011;18066;52.106;5.534;2022-08-30T02:10:36;4.30;;;3.90;;
18296;SDS011;18066;52.106;5.534;2022-08-30T02:13:02;4.05;;;3.42;;
18296;SDS011;18066;52.106;5.534;2022-08-30T02:15:30;6.55;;;4.22;;
18296;SDS011;18066;52.106;5.534;2022-08-30T02:17:59;5.80;;;4.22;;
18296;SDS011;18066;52.106;5.534;2022-08-30T02:20:25;4.05;;;3.70;;
18296;SDS011;18066;52.106;5.534;2022-08-30T02:22:52;5.03;;;3.80;;
18296;SDS011;18066;52.106;5.534;2022-08-30T02:25:19;4.03;;;3.65;;
18296;SDS011;18066;52.106;5.534;2022-08-30T02:27:46;5.25;;;3.92;;
18296;SDS011;18066;52.106;5.534;2022-08-30T02:30:12;7.50;;;4.57;;
18296;SDS011;18066;52.106;5.534;2022-08-30T02:32:41;5.20;;;4.30;;
18296;SDS011;18066;52.106;5.534;2022-08-30T02:35:07;5.75;;;4.10;;
18296;SDS011;18066;52.106;5.534;2022-08-30T02:37:34;5.72;;;4.28;;
18296;SDS011;18066;52.106;5.534;2022-08-30T02:40:02;5.70;;;3.70;;
18296;SDS011;18066;52.106;5.534;2022-08-30T02:42:30;12.80;;;4.70;;
18296;SDS011;18066;52.106;5.534;2022-08-30T02:44:56;4.40;;;4.00;;
18296;SDS011;18066;52.106;5.534;2022-08-30T02:47:24;6.38;;;4.75;;
18296;SDS011;18066;52.106;5.534;2022-08-30T02:49:52;4.70;;;4.20;;
18296;SDS011;18066;52.106;5.534;2022-08-30T02:52:19;6.68;;;4.90;;
18296;SDS011;18066;52.106;5.534;2022-08-30T02:54:45;6.40;;;4.63;;
18296;SDS011;18066;52.106;5.534;2022-08-30T02:57:12;6.93;;;4.90;;
18296;SDS011;18066;52.106;5.534;2022-08-30T02:59:39;5.85;;;5.25;;
18296;SDS011;18066;52.106;5.534;2022-08-30T03:02:08;6.55;;;4.75;;
18296;SDS011;18066;52.106;5.534;2022-08-30T03:04:35;5.20;;;4.70;;
18296;SDS011;18066;52.106;5.534;2022-08-30T03:07:04;6.15;;;4.90;;
18296;SDS011;18066;52.106;5.534;2022-08-30T03:09:32;6.25;;;4.88;;
18296;SDS011;18066;52.106;5.534;2022-08-30T03:11:59;6.10;;;5.15;;
18296;SDS011;18066;52.106;5.534;2022-08-30T03:14:25;6.22;;;5.00;;
18296;SDS011;18066;52.106;5.534;2022-08-30T03:16:53;6.07;;;5.43;;
18296;SDS011;18066;52.106;5.534;2022-08-30T03:19:20;7.43;;;5.57;;
18296;SDS011;18066;52.106;5.534;2022-08-30T03:21:47;6.45;;;5.20;;
18296;SDS011;18066;52.106;5.534;2022-08-30T03:24:15;10.35;;;6.60;;
18296;SDS011;18066;52.106;5.534;2022-08-30T03:26:42;6.35;;;5.15;;
18296;SDS011;18066;52.106;5.534;2022-08-30T03:29:09;7.00;;;5.45;;
18296;SDS011;18066;52.106;5.534;2022-08-30T03:31:36;8.02;;;5.72;;
18296;SDS011;18066;52.106;5.534;2022-08-30T03:34:03;8.02;;;5.60;;
18296;SDS011;18066;52.106;5.534;2022-08-30T03:36:30;8.50;;;5.25;;
18296;SDS011;18066;52.106;5.534;2022-08-30T03:38:57;10.13;;;6.45;;
18296;SDS011;18066;52.106;5.534;2022-08-30T03:41:25;7.63;;;6.22;;
18296;SDS011;18066;52.106;5.534;2022-08-30T03:43:51;8.07;;;7.20;;
18296;SDS011;18066;52.106;5.534;2022-08-30T03:46:18;8.75;;;6.90;;
18296;SDS011;18066;52.106;5.534;2022-08-30T03:48:45;11.38;;;6.57;;
18296;SDS011;18066;52.106;5.534;2022-08-30T03:51:11;10.20;;;7.65;;
18296;SDS011;18066;52.106;5.534;2022-08-30T03:53:38;9.63;;;7.10;;
18296;SDS011;18066;52.106;5.534;2022-08-30T03:56:05;10.00;;;7.03;;
18296;SDS011;18066;52.106;5.534;2022-08-30T03:58:33;8.43;;;7.60;;
18296;SDS011;18066;52.106;5.534;2022-08-30T04:01:00;9.40;;;7.20;;
18296;SDS011;18066;52.106;5.534;2022-08-30T04:03:26;8.65;;;7.63;;
18296;SDS011;18066;52.106;5.534;2022-08-30T04:05:54;11.35;;;8.63;;
18296;SDS011;18066;52.106;5.534;2022-08-30T04:08:21;8.30;;;7.13;;
18296;SDS011;18066;52.106;5.534;2022-08-30T04:10:48;9.33;;;7.83;;
18296;SDS011;18066;52.106;5.534;2022-08-30T04:13:17;10.07;;;8.32;;
18296;SDS011;18066;52.106;5.534;2022-08-30T04:15:46;12.18;;;9.23;;
18296;SDS011;18066;52.106;5.534;2022-08-30T04:18:12;9.53;;;8.13;;
18296;SDS011;18066;52.106;5.534;2022-08-30T04:20:39;10.88;;;8.70;;
18296;SDS011;18066;52.106;5.534;2022-08-30T04:23:07;12.05;;;8.82;;
18296;SDS011;18066;52.106;5.534;2022-08-30T04:25:34;11.27;;;8.82;;
18296;SDS011;18066;52.106;5.534;2022-08-30T04:28:02;12.75;;;8.50;;
18296;SDS011;18066;52.106;5.534;2022-08-30T04:30:30;12.73;;;9.25;;
18296;SDS011;18066;52.106;5.534;2022-08-30T04:32:58;9.75;;;8.43;;
18296;SDS011;18066;52.106;5.534;2022-08-30T04:35:25;14.55;;;9.00;;
18296;SDS011;18066;52.106;5.534;2022-08-30T04:37:52;13.48;;;8.30;;
18296;SDS011;18066;52.106;5.534;2022-08-30T04:40:19;14.75;;;8.05;;
18296;SDS011;18066;52.106;5.534;2022-08-30T04:42:45;10.10;;;8.70;;
18296;SDS011;18066;52.106;5.534;2022-08-30T04:45:13;10.02;;;8.77;;
18296;SDS011;18066;52.106;5.534;2022-08-30T04:47:41;12.63;;;8.23;;
18296;SDS011;18066;52.106;5.534;2022-08-30T04:50:11;12.00;;;8.27;;
18296;SDS011;18066;52.106;5.534;2022-08-30T04:52:40;12.68;;;8.73;;
18296;SDS011;18066;52.106;5.534;2022-08-30T04:55:08;10.68;;;8.07;;
18296;SDS011;18066;52.106;5.534;2022-08-30T04:57:36;8.98;;;8.00;;
18296;SDS011;18066;52.106;5.534;2022-08-30T05:00:05;14.50;;;9.18;;
18296;SDS011;18066;52.106;5.534;2022-08-30T05:02:35;10.05;;;8.45;;
18296;SDS011;18066;52.106;5.534;2022-08-30T05:05:02;12.00;;;8.73;;
18296;SDS011;18066;52.106;5.534;2022-08-30T05:07:48;9.60;;;8.30;;
18296;SDS011;18066;52.106;5.534;2022-08-30T05:10:15;9.50;;;8.45;;
18296;SDS011;18066;52.106;5.534;2022-08-30T05:12:42;8.85;;;7.50;;
18296;SDS011;18066;52.106;5.534;2022-08-30T05:15:09;11.70;;;8.68;;
18296;SDS011;18066;52.106;5.534;2022-08-30T05:17:37;15.10;;;8.40;;
18296;SDS011;18066;52.106;5.534;2022-08-30T05:20:05;8.98;;;8.07;;
18296;SDS011;18066;52.106;5.534;2022-08-30T05:22:34;10.45;;;8.10;;
18296;SDS011;18066;52.106;5.534;2022-08-30T05:25:02;11.48;;;8.52;;
18296;SDS011;18066;52.106;5.534;2022-08-30T05:27:30;8.60;;;7.57;;
18296;SDS011;18066;52.106;5.534;2022-08-30T05:29:57;12.07;;;8.00;;
18296;SDS011;18066;52.106;5.534;2022-08-30T05:32:24;12.07;;;8.55;;
18296;SDS011;18066;52.106;5.534;2022-08-30T05:34:50;10.75;;;8.38;;
18296;SDS011;18066;52.106;5.534;2022-08-30T05:37:17;10.17;;;8.70;;
18296;SDS011;18066;52.106;5.534;2022-08-30T05:39:44;8.68;;;7.78;;
18296;SDS011;18066;52.106;5.534;2022-08-30T05:42:12;13.95;;;8.60;;
18296;SDS011;18066;52.106;5.534;2022-08-30T05:44:38;11.57;;;7.50;;
18296;SDS011;18066;52.106;5.534;2022-08-30T05:47:05;9.57;;;7.90;;
18296;SDS011;18066;52.106;5.534;2022-08-30T05:49:32;11.82;;;8.15;;
18296;SDS011;18066;52.106;5.534;2022-08-30T05:51:58;21.13;;;13.68;;
18296;SDS011;18066;52.106;5.534;2022-08-30T05:54:25;11.10;;;7.82;;
18296;SDS011;18066;52.106;5.534;2022-08-30T05:56:52;10.93;;;7.53;;
18296;SDS011;18066;52.106;5.534;2022-08-30T05:59:20;11.38;;;7.75;;
18296;SDS011;18066;52.106;5.534;2022-08-30T06:01:46;7.78;;;7.07;;
18296;SDS011;18066;52.106;5.534;2022-08-30T06:04:13;12.00;;;7.50;;
18296;SDS011;18066;52.106;5.534;2022-08-30T06:06:41;8.93;;;7.30;;
18296;SDS011;18066;52.106;5.534;2022-08-30T06:09:10;10.57;;;7.57;;
18296;SDS011;18066;52.106;5.534;2022-08-30T06:11:37;10.90;;;7.15;;
18296;SDS011;18066;52.106;5.534;2022-08-30T06:14:04;7.95;;;6.60;;
18296;SDS011;18066;52.106;5.534;2022-08-30T06:16:33;11.15;;;7.10;;
18296;SDS011;18066;52.106;5.534;2022-08-30T06:19:02;8.13;;;7.07;;
18296;SDS011;18066;52.106;5.534;2022-08-30T06:21:31;8.45;;;6.28;;
18296;SDS011;18066;52.106;5.534;2022-08-30T06:24:03;8.32;;;6.35;;
18296;SDS011;18066;52.106;5.534;2022-08-30T06:26:35;10.05;;;6.97;;
18296;SDS011;18066;52.106;5.534;2022-08-30T06:29:02;7.63;;;5.82;;
18296;SDS011;18066;52.106;5.534;2022-08-30T06:31:29;7.40;;;5.53;;
18296;SDS011;18066;52.106;5.534;2022-08-30T06:33:57;6.78;;;6.10;;
18296;SDS011;18066;52.106;5.534;2022-08-30T06:36:24;9.20;;;5.18;;
18296;SDS011;18066;52.106;5.534;2022-08-30T06:38:53;6.95;;;5.55;;
18296;SDS011;18066;52.106;5.534;2022-08-30T06:41:21;9.02;;;5.18;;
18296;SDS011;18066;52.106;5.534;2022-08-30T06:43:49;7.35;;;5.13;;
18296;SDS011;18066;52.106;5.534;2022-08-30T06:46:18;7.75;;;4.30;;
18296;SDS011;18066;52.106;5.534;2022-08-30T06:48:47;5.18;;;4.15;;
18296;SDS011;18066;52.106;5.534;2022-08-30T06:51:17;9.32;;;3.95;;
18296;SDS011;18066;52.106;5.534;2022-08-30T06:53:45;4.72;;;4.05;;
18296;SDS011;18066;52.106;5.534;2022-08-30T06:56:14;8.23;;;3.95;;
18296;SDS011;18066;52.106;5.534;2022-08-30T06:58:42;6.15;;;4.07;;
18296;SDS011;18066;52.106;5.534;2022-08-30T07:01:10;5.50;;;4.03;;
18296;SDS011;18066;52.106;5.534;2022-08-30T07:03:39;4.38;;;3.15;;
18296;SDS011;18066;52.106;5.534;2022-08-30T07:06:06;5.72;;;3.10;;
18296;SDS011;18066;52.106;5.534;2022-08-30T07:08:35;4.75;;;2.70;;
18296;SDS011;18066;52.106;5.534;2022-08-30T07:11:03;4.60;;;2.60;;
18296;SDS011;18066;52.106;5.534;2022-08-30T07:13:30;3.80;;;2.55;;
18296;SDS011;18066;52.106;5.534;2022-08-30T07:15:57;3.17;;;2.35;;
18296;SDS011;18066;52.106;5.534;2022-08-30T07:18:24;5.35;;;2.60;;
18296;SDS011;18066;52.106;5.534;2022-08-30T07:21:09;3.65;;;2.10;;
18296;SDS011;18066;52.106;5.534;2022-08-30T07:23:39;4.00;;;1.95;;
18296;SDS011;18066;52.106;5.534;2022-08-30T07:26:09;4.55;;;1.65;;
18296;SDS011;18066;52.106;5.534;2022-08-30T07:28:37;4.72;;;1.20;;
18296;SDS011;18066;52.106;5.534;2022-08-30T07:31:05;5.35;;;1.48;;
18296;SDS011;18066;52.106;5.534;2022-08-30T07:33:32;3.80;;;1.30;;
18296;SDS011;18066;52.106;5.534;2022-08-30T07:35:59;3.63;;;1.50;;
18296;SDS011;18066;52.106;5.534;2022-08-30T07:38:27;2.28;;;1.30;;
18296;SDS011;18066;52.106;5.534;2022-08-30T07:40:55;1.60;;;1.10;;
18296;SDS011;18066;52.106;5.534;2022-08-30T07:43:23;1.67;;;1.30;;
18296;SDS011;18066;52.106;5.534;2022-08-30T07:45:49;3.58;;;1.30;;
18296;SDS011;18066;52.106;5.534;2022-08-30T07:48:16;3.45;;;1.40;;
18296;SDS011;18066;52.106;5.534;2022-08-30T07:50:43;2.65;;;1.10;;
18296;SDS011;18066;52.106;5.534;2022-08-30T07:53:11;3.65;;;1.30;;
18296;SDS011;18066;52.106;5.534;2022-08-30T07:55:38;2.55;;;1.25;;
18296;SDS011;18066;52.106;5.534;2022-08-30T07:58:06;2.67;;;1.10;;
18296;SDS011;18066;52.106;5.534;2022-08-30T08:00:33;7.03;;;1.20;;
18296;SDS011;18066;52.106;5.534;2022-08-30T08:03:03;4.20;;;1.55;;
18296;SDS011;18066;52.106;5.534;2022-08-30T08:05:31;2.75;;;1.10;;
18296;SDS011;18066;52.106;5.534;2022-08-30T08:08:02;4.10;;;1.75;;
18296;SDS011;18066;52.106;5.534;2022-08-30T08:10:29;1.48;;;1.10;;
18296;SDS011;18066;52.106;5.534;2022-08-30T08:12:56;3.03;;;1.10;;
18296;SDS011;18066;52.106;5.534;2022-08-30T08:15:25;2.45;;;1.15;;
18296;SDS011;18066;52.106;5.534;2022-08-30T08:17:52;3.35;;;1.35;;
18296;SDS011;18066;52.106;5.534;2022-08-30T08:20:19;5.38;;;1.40;;
18296;SDS011;18066;52.106;5.534;2022-08-30T08:22:46;2.85;;;1.20;;
18296;SDS011;18066;52.106;5.534;2022-08-30T08:25:12;1.60;;;1.23;;
18296;SDS011;18066;52.106;5.534;2022-08-30T08:27:40;3.00;;;1.50;;
18296;SDS011;18066;52.106;5.534;2022-08-30T08:30:07;1.88;;;1.00;;
18296;SDS011;18066;52.106;5.534;2022-08-30T08:32:36;2.42;;;1.20;;
18296;SDS011;18066;52.106;5.534;2022-08-30T08:35:02;2.83;;;1.20;;
18296;SDS011;18066;52.106;5.534;2022-08-30T08:37:30;2.17;;;1.23;;
18296;SDS011;18066;52.106;5.534;2022-08-30T08:39:56;1.20;;;1.10;;
18296;SDS011;18066;52.106;5.534;2022-08-30T08:42:24;1.92;;;1.20;;
18296;SDS011;18066;52.106;5.534;2022-08-30T08:44:58;3.70;;;1.30;;
18296;SDS011;18066;52.106;5.534;2022-08-30T08:47:29;4.47;;;1.20;;
18296;SDS011;18066;52.106;5.534;2022-08-30T08:50:06;9.85;;;1.63;;
18296;SDS011;18066;52.106;5.534;2022-08-30T08:52:40;1.30;;;1.02;;
18296;SDS011;18066;52.106;5.534;2022-08-30T08:55:31;3.22;;;1.20;;
18296;SDS011;18066;52.106;5.534;2022-08-30T08:57:58;4.95;;;1.23;;
18296;SDS011;18066;52.106;5.534;2022-08-30T09:00:24;3.53;;;1.20;;
18296;SDS011;18066;52.106;5.534;2022-08-30T09:02:56;1.80;;;1.05;;
18296;SDS011;18066;52.106;5.534;2022-08-30T09:05:25;4.03;;;1.70;;
18296;SDS011;18066;52.106;5.534;2022-08-30T09:07:55;5.20;;;1.20;;
18296;SDS011;18066;52.106;5.534;2022-08-30T09:10:26;4.43;;;1.27;;
18296;SDS011;18066;52.106;5.534;2022-08-30T09:12:54;1.65;;;1.10;;
18296;SDS011;18066;52.106;5.534;2022-08-30T09:15:22;1.80;;;1.13;;
18296;SDS011;18066;52.106;5.534;2022-08-30T09:17:53;1.23;;;1.13;;
18296;SDS011;18066;52.106;5.534;2022-08-30T09:20:23;3.35;;;1.25;;
18296;SDS011;18066;52.106;5.534;2022-08-30T09:22:52;2.25;;;1.23;;
18296;SDS011;18066;52.106;5.534;2022-08-30T09:25:19;1.30;;;1.20;;
18296;SDS011;18066;52.106;5.534;2022-08-30T09:27:49;1.88;;;1.10;;
18296;SDS011;18066;52.106;5.534;2022-08-30T09:30:19;2.17;;;1.27;;
18296;SDS011;18066;52.106;5.534;2022-08-30T09:32:51;2.42;;;1.02;;
18296;SDS011;18066;52.106;5.534;2022-08-30T09:35:21;5.90;;;1.30;;
18296;SDS011;18066;52.106;5.534;2022-08-30T09:37:53;5.28;;;1.50;;
18296;SDS011;18066;52.106;5.534;2022-08-30T09:40:24;2.42;;;1.30;;
18296;SDS011;18066;52.106;5.534;2022-08-30T09:42:58;3.08;;;1.25;;
18296;SDS011;18066;52.106;5.534;2022-08-30T09:45:29;3.13;;;1.05;;
18296;SDS011;18066;52.106;5.534;2022-08-30T09:47:58;3.50;;;1.65;;
18296;SDS011;18066;52.106;5.534;2022-08-30T09:50:28;2.05;;;1.38;;
18296;SDS011;18066;52.106;5.534;2022-08-30T09:53:02;6.00;;;1.00;;
18296;SDS011;18066;52.106;5.534;2022-08-30T09:55:46;3.65;;;1.10;;
18296;SDS011;18066;52.106;5.534;2022-08-30T09:58:31;3.60;;;1.30;;
18296;SDS011;18066;52.106;5.534;2022-08-30T10:01:09;4.15;;;1.45;;
18296;SDS011;18066;52.106;5.534;2022-08-30T10:03:40;3.95;;;1.20;;
18296;SDS011;18066;52.106;5.534;2022-08-30T10:06:20;1.60;;;1.05;;
18296;SDS011;18066;52.106;5.534;2022-08-30T10:08:57;4.55;;;1.25;;
18296;SDS011;18066;52.106;5.534;2022-08-30T10:11:32;5.03;;;1.30;;
18296;SDS011;18066;52.106;5.534;2022-08-30T10:17:11;2.25;;;0.90;;
18296;SDS011;18066;52.106;5.534;2022-08-30T10:19:48;1.73;;;1.13;;
18296;SDS011;18066;52.106;5.534;2022-08-30T10:22:25;2.45;;;1.20;;
18296;SDS011;18066;52.106;5.534;2022-08-30T10:25:04;3.03;;;1.17;;
18296;SDS011;18066;52.106;5.534;2022-08-30T10:27:36;1.88;;;1.20;;
18296;SDS011;18066;52.106;5.534;2022-08-30T10:30:08;2.38;;;1.10;;
18296;SDS011;18066;52.106;5.534;2022-08-30T10:32:38;2.50;;;1.23;;
18296;SDS011;18066;52.106;5.534;2022-08-30T10:35:11;3.72;;;1.20;;
18296;SDS011;18066;52.106;5.534;2022-08-30T10:37:43;2.05;;;1.30;;
18296;SDS011;18066;52.106;5.534;2022-08-30T10:40:14;2.35;;;1.00;;
18296;SDS011;18066;52.106;5.534;2022-08-30T10:43:01;3.47;;;1.10;;
18296;SDS011;18066;52.106;5.534;2022-08-30T10:45:33;1.30;;;0.90;;
18296;SDS011;18066;52.106;5.534;2022-08-30T10:48:04;0.95;;;0.85;;
18296;SDS011;18066;52.106;5.534;2022-08-30T10:50:37;1.02;;;0.93;;
18296;SDS011;18066;52.106;5.534;2022-08-30T10:53:11;2.20;;;1.05;;
18296;SDS011;18066;52.106;5.534;2022-08-30T10:55:41;8.38;;;1.55;;
18296;SDS011;18066;52.106;5.534;2022-08-30T10:58:14;4.82;;;1.30;;
18296;SDS011;18066;52.106;5.534;2022-08-30T11:00:44;1.52;;;1.00;;
18296;SDS011;18066;52.106;5.534;2022-08-30T11:06:25;2.05;;;1.00;;
18296;SDS011;18066;52.106;5.534;2022-08-30T11:09:05;1.23;;;1.10;;
18296;SDS011;18066;52.106;5.534;2022-08-30T11:14:45;2.65;;;1.40;;
18296;SDS011;18066;52.106;5.534;2022-08-30T11:17:21;4.40;;;1.10;;
18296;SDS011;18066;52.106;5.534;2022-08-30T11:19:51;3.40;;;1.40;;
18296;SDS011;18066;52.106;5.534;2022-08-30T11:22:22;1.92;;;1.05;;
18296;SDS011;18066;52.106;5.534;2022-08-30T11:25:04;1.95;;;1.05;;
18296;SDS011;18066;52.106;5.534;2022-08-30T11:27:40;3.83;;;1.20;;
18296;SDS011;18066;52.106;5.534;2022-08-30T11:33:28;4.20;;;1.20;;
18296;SDS011;18066;52.106;5.534;2022-08-30T11:36:04;2.00;;;1.27;;
18296;SDS011;18066;52.106;5.534;2022-08-30T11:41:31;2.20;;;1.13;;
18296;SDS011;18066;52.106;5.534;2022-08-30T11:46:56;2.90;;;1.08;;
18296;SDS011;18066;52.106;5.534;2022-08-30T11:49:45;2.40;;;1.20;;
18296;SDS011;18066;52.106;5.534;2022-08-30T11:55:17;2.22;;;1.08;;
18296;SDS011;18066;52.106;5.534;2022-08-30T11:57:56;1.95;;;1.02;;
18296;SDS011;18066;52.106;5.534;2022-08-30T12:00:33;1.13;;;1.00;;
18296;SDS011;18066;52.106;5.534;2022-08-30T12:03:04;1.90;;;1.20;;
18296;SDS011;18066;52.106;5.534;2022-08-30T12:14:43;2.58;;;1.20;;
18296;SDS011;18066;52.106;5.534;2022-08-30T12:17:24;2.15;;;1.10;;
18296;SDS011;18066;52.106;5.534;2022-08-30T12:20:20;1.75;;;1.30;;
18296;SDS011;18066;52.106;5.534;2022-08-30T12:22:51;2.05;;;1.10;;
18296;SDS011;18066;52.106;5.534;2022-08-30T12:25:23;1.10;;;0.90;;
18296;SDS011;18066;52.106;5.534;2022-08-30T12:28:07;2.55;;;1.52;;
18296;SDS011;18066;52.106;5.534;2022-08-30T12:30:36;3.90;;;1.00;;
18296;SDS011;18066;52.106;5.534;2022-08-30T12:33:05;4.32;;;1.13;;
18296;SDS011;18066;52.106;5.534;2022-08-30T12:35:34;2.75;;;1.38;;
18296;SDS011;18066;52.106;5.534;2022-08-30T12:38:02;3.17;;;0.90;;
18296;SDS011;18066;52.106;5.534;2022-08-30T12:40:36;1.65;;;1.05;;
18296;SDS011;18066;52.106;5.534;2022-08-30T12:43:15;2.88;;;1.15;;
18296;SDS011;18066;52.106;5.534;2022-08-30T12:45:50;6.90;;;1.17;;
18296;SDS011;18066;52.106;5.534;2022-08-30T12:48:18;4.43;;;1.20;;
18296;SDS011;18066;52.106;5.534;2022-08-30T12:50:48;3.10;;;1.17;;
18296;SDS011;18066;52.106;5.534;2022-08-30T12:53:21;1.75;;;1.05;;
18296;SDS011;18066;52.106;5.534;2022-08-30T12:55:52;1.70;;;1.23;;
18296;SDS011;18066;52.106;5.534;2022-08-30T12:58:32;2.08;;;0.90;;
18296;SDS011;18066;52.106;5.534;2022-08-30T13:01:16;6.38;;;1.10;;
18296;SDS011;18066;52.106;5.534;2022-08-30T13:03:53;2.42;;;1.20;;
18296;SDS011;18066;52.106;5.534;2022-08-30T13:09:21;1.83;;;1.05;;
18296;SDS011;18066;52.106;5.534;2022-08-30T13:11:51;1.88;;;1.17;;
18296;SDS011;18066;52.106;5.534;2022-08-30T13:14:23;1.50;;;1.00;;
18296;SDS011;18066;52.106;5.534;2022-08-30T13:17:08;2.47;;;1.08;;
18296;SDS011;18066;52.106;5.534;2022-08-30T13:19:54;3.28;;;1.40;;
18296;SDS011;18066;52.106;5.534;2022-08-30T13:22:24;1.55;;;1.05;;
18296;SDS011;18066;52.106;5.534;2022-08-30T13:24:53;1.80;;;1.38;;
18296;SDS011;18066;52.106;5.534;2022-08-30T13:27:20;1.60;;;0.90;;
18296;SDS011;18066;52.106;5.534;2022-08-30T13:29:47;1.35;;;1.20;;
18296;SDS011;18066;52.106;5.534;2022-08-30T13:32:15;2.00;;;1.15;;
18296;SDS011;18066;52.106;5.534;2022-08-30T13:34:43;2.90;;;1.42;;
18296;SDS011;18066;52.106;5.534;2022-08-30T13:37:11;4.45;;;1.45;;
18296;SDS011;18066;52.106;5.534;2022-08-30T13:39:40;3.75;;;1.30;;
18296;SDS011;18066;52.106;5.534;2022-08-30T13:42:07;1.92;;;1.40;;
18296;SDS011;18066;52.106;5.534;2022-08-30T13:44:33;5.22;;;1.25;;
18296;SDS011;18066;52.106;5.534;2022-08-30T13:47:00;2.85;;;1.40;;
18296;SDS011;18066;52.106;5.534;2022-08-30T13:49:30;1.40;;;1.20;;
18296;SDS011;18066;52.106;5.534;2022-08-30T13:51:59;2.38;;;1.05;;
18296;SDS011;18066;52.106;5.534;2022-08-30T13:54:26;1.45;;;1.10;;
18296;SDS011;18066;52.106;5.534;2022-08-30T13:56:53;4.40;;;1.30;;
18296;SDS011;18066;52.106;5.534;2022-08-30T13:59:21;2.95;;;1.50;;
18296;SDS011;18066;52.106;5.534;2022-08-30T14:01:48;2.00;;;1.20;;
18296;SDS011;18066;52.106;5.534;2022-08-30T14:04:15;2.13;;;1.08;;
18296;SDS011;18066;52.106;5.534;2022-08-30T14:06:44;1.63;;;1.00;;
18296;SDS011;18066;52.106;5.534;2022-08-30T14:09:10;2.55;;;1.02;;
18296;SDS011;18066;52.106;5.534;2022-08-30T14:11:39;1.73;;;1.02;;
18296;SDS011;18066;52.106;5.534;2022-08-30T14:14:06;2.75;;;1.20;;
18296;SDS011;18066;52.106;5.534;2022-08-30T14:16:33;1.40;;;1.10;;
18296;SDS011;18066;52.106;5.534;2022-08-30T14:19:01;4.28;;;1.23;;
18296;SDS011;18066;52.106;5.534;2022-08-30T14:21:28;3.33;;;1.30;;
18296;SDS011;18066;52.106;5.534;2022-08-30T14:23:56;3.58;;;1.15;;
18296;SDS011;18066;52.106;5.534;2022-08-30T14:26:25;2.15;;;0.88;;
18296;SDS011;18066;52.106;5.534;2022-08-30T14:28:53;4.18;;;1.27;;
18296;SDS011;18066;52.106;5.534;2022-08-30T14:31:20;1.10;;;1.00;;
18296;SDS011;18066;52.106;5.534;2022-08-30T14:33:47;4.00;;;1.35;;
18296;SDS011;18066;52.106;5.534;2022-08-30T14:36:14;3.65;;;1.30;;
18296;SDS011;18066;52.106;5.534;2022-08-30T14:38:41;1.77;;;1.20;;
18296;SDS011;18066;52.106;5.534;2022-08-30T14:41:09;1.98;;;1.13;;
18296;SDS011;18066;52.106;5.534;2022-08-30T14:43:36;3.20;;;1.17;;
18296;SDS011;18066;52.106;5.534;2022-08-30T14:46:04;2.05;;;1.13;;
18296;SDS011;18066;52.106;5.534;2022-08-30T14:48:31;2.00;;;1.25;;
18296;SDS011;18066;52.106;5.534;2022-08-30T14:50:58;1.13;;;0.93;;
18296;SDS011;18066;52.106;5.534;2022-08-30T14:53:24;1.15;;;0.85;;
18296;SDS011;18066;52.106;5.534;2022-08-30T14:55:51;1.70;;;0.90;;
18296;SDS011;18066;52.106;5.534;2022-08-30T14:58:19;5.13;;;1.33;;
18296;SDS011;18066;52.106;5.534;2022-08-30T15:00:48;1.42;;;1.08;;
18296;SDS011;18066;52.106;5.534;2022-08-30T15:03:16;2.60;;;1.23;;
18296;SDS011;18066;52.106;5.534;2022-08-30T15:05:46;2.00;;;1.17;;
18296;SDS011;18066;52.106;5.534;2022-08-30T15:08:14;1.00;;;0.88;;
18296;SDS011;18066;52.106;5.534;2022-08-30T15:10:41;2.40;;;1.10;;
18296;SDS011;18066;52.106;5.534;2022-08-30T15:13:09;2.08;;;1.13;;
18296;SDS011;18066;52.106;5.534;2022-08-30T15:15:37;5.38;;;1.20;;
18296;SDS011;18066;52.106;5.534;2022-08-30T15:18:06;3.33;;;1.00;;
18296;SDS011;18066;52.106;5.534;2022-08-30T15:20:33;2.83;;;1.15;;
18296;SDS011;18066;52.106;5.534;2022-08-30T15:23:00;4.80;;;1.20;;
18296;SDS011;18066;52.106;5.534;2022-08-30T15:25:27;2.83;;;1.10;;
18296;SDS011;18066;52.106;5.534;2022-08-30T15:27:53;3.45;;;1.10;;
18296;SDS011;18066;52.106;5.534;2022-08-30T15:30:20;1.73;;;0.80;;
18296;SDS011;18066;52.106;5.534;2022-08-30T15:32:48;1.33;;;0.95;;